Meteorología y climatología de Navarra
Datos de la estación - Meteo Navarra

Estación de Aoiz GN

Altitud 534 m.


Datos desde el 16/09/2020 hasta el 17/09/2020 en horario solar
Los datos son PROVISIONALES

Anterior Página 1 de 1 Siguiente Descargar: Formato para Excel 2000 o superior   Formato csv   Formato para OpenOffice Calc
Fecha Temperatura Humedad relativa Radiación global Insolación Precipitación Vel. viento 10 m Vel. viento 10 m Dir. viento 10 m
ºC % W/m² s l/m² m/s km/h º
16/09/2020 0:00 19.8 66 0.0 0 0.0 3.4 12.1 10
16/09/2020 0:10 19.9 65 0.0 0 0.0 2.9 10.3 1
16/09/2020 0:20 19.7 66 0.0 0 0.0 3.6 12.8 4
16/09/2020 0:30 19.5 67 0.0 0 0.0 3.1 11.0 4
16/09/2020 0:40 19.4 68 0.0 0 0.0 3.2 11.4 10
16/09/2020 0:50 19.2 69 0.0 0 0.0 1.7 6.0 348
16/09/2020 1:00 19.0 70 0.0 0 0.0 1.0 3.5 343
16/09/2020 1:10 18.8 70 0.0 0 0.0 1.2 4.2 330
16/09/2020 1:20 18.8 70 0.0 0 0.0 1.7 6.0 356
16/09/2020 1:30 18.6 71 0.0 0 0.0 1.3 4.8 344
16/09/2020 1:40 18.4 72 0.0 0 0.0 1.7 5.9 347
16/09/2020 1:50 18.3 72 0.0 0 0.0 2.2 7.7 359
16/09/2020 2:00 18.2 73 0.0 0 0.0 1.8 6.3 360
16/09/2020 2:10 18.1 73 0.0 0 0.0 1.9 6.8 358
16/09/2020 2:20 18.0 73 0.0 0 0.0 2.1 7.4 354
16/09/2020 2:30 17.9 74 0.0 0 0.0 1.6 5.9 355
16/09/2020 2:40 17.9 74 0.0 0 0.0 1.9 6.8 346
16/09/2020 2:50 17.8 74 0.0 0 0.0 1.7 6.2 348
16/09/2020 3:00 17.7 75 0.0 0 0.0 1.6 5.6 357
16/09/2020 3:10 17.6 75 0.0 0 0.0 2.2 7.7 341
16/09/2020 3:20 17.6 75 0.0 0 0.0 1.5 5.2 356
16/09/2020 3:30 17.6 75 0.0 0 0.0 1.9 6.7 341
16/09/2020 3:40 17.6 74 0.0 0 0.0 1.1 3.8 333
16/09/2020 3:50 17.5 75 0.0 0 0.0 1.5 5.2 20
16/09/2020 4:00 17.2 75 0.0 0 0.0 2.0 7.0 13
16/09/2020 4:10 17.1 76 0.0 0 0.0 2.7 9.5 11
16/09/2020 4:20 17.1 77 0.0 0 0.0 2.4 8.5 9
16/09/2020 4:30 17.1 76 0.0 0 0.0 2.0 7.0 7
16/09/2020 4:40 17.0 76 0.0 0 0.0 2.2 7.8 8
16/09/2020 4:50 16.9 76 0.0 0 0.0 3.3 11.7 15
16/09/2020 5:00 17.0 76 0.0 0 0.0 3.8 13.8 14
16/09/2020 5:10 16.8 77 0.0 0 0.0 3.5 12.6 9
16/09/2020 5:20 16.7 78 0.0 0 0.0 2.3 8.2 13
16/09/2020 5:30 16.7 78 0.0 0 0.0 3.8 13.8 11
16/09/2020 5:40 16.6 78 0.0 0 0.0 1.5 5.3 1
16/09/2020 5:50 16.3 79 0.0 0 0.0 1.5 5.2 66
16/09/2020 6:00 16.4 78 5.9 0 0.0 2.4 8.7 9
16/09/2020 6:10 16.6 78 24.6 44 0.0 2.5 9.0 19
16/09/2020 6:20 16.6 78 38.7 236 0.0 2.6 9.3 20
16/09/2020 6:30 16.7 77 67.5 600 0.0 2.2 7.7 23
16/09/2020 6:40 17.0 75 89.2 600 0.0 1.4 5.2 21
16/09/2020 6:50 17.5 74 114.0 600 0.0 1.7 6.0 29
16/09/2020 7:00 17.8 72 137.6 600 0.0 1.9 6.8 25
16/09/2020 7:10 18.2 71 168.7 600 0.0 1.5 5.4 35
16/09/2020 7:20 18.5 69 200.5 600 0.0 1.7 6.2 53
16/09/2020 7:30 18.9 68 228.9 600 0.0 1.8 6.5 44
16/09/2020 7:40 19.2 66 271.4 600 0.0 2.5 8.9 43
16/09/2020 7:50 19.3 66 310.0 600 0.0 2.9 10.3 38
16/09/2020 8:00 20.1 63 331.9 600 0.0 2.6 9.3 55
16/09/2020 8:10 20.7 61 372.0 600 0.0 2.6 9.2 65
16/09/2020 8:20 21.2 60 399.9 600 0.0 1.8 6.5 108
16/09/2020 8:30 21.4 59 392.9 600 0.0 1.0 3.6 111
16/09/2020 8:40 21.7 57 430.4 600 0.0 0.8 2.8 157
16/09/2020 8:50 21.4 57 466.4 600 0.0 0.7 2.4 202
16/09/2020 9:00 22.0 56 503.2 600 0.0 0.8 2.9 200
16/09/2020 9:10 22.4 54 519.3 600 0.0 0.7 2.3 187
16/09/2020 9:20 23.0 52 542.6 600 0.0 0.9 3.2 241
16/09/2020 9:30 23.8 49 573.4 600 0.0 0.7 2.3 240
16/09/2020 9:40 24.6 46 602.4 600 0.0 1.1 4.1 236
16/09/2020 9:50 24.9 45 627.9 600 0.0 0.8 3.0 252
16/09/2020 10:00 25.7 42 623.2 600 0.0 1.2 4.2 222
16/09/2020 10:10 25.8 42 631.9 600 0.0 1.2 4.3 228
16/09/2020 10:20 26.2 41 685.0 600 0.0 1.2 4.4 240
16/09/2020 10:30 26.6 40 692.4 600 0.0 1.2 4.4 223
16/09/2020 10:40 27.6 38 703.6 600 0.0 0.8 2.8 220
16/09/2020 10:50 27.5 39 715.4 600 0.0 1.0 3.7 228
16/09/2020 11:00 27.9 39 728.7 600 0.0 1.3 4.8 186
16/09/2020 11:10 28.4 37 738.9 600 0.0 1.5 5.3 165
16/09/2020 11:20 28.5 37 746.8 600 0.0 1.4 5.1 218
16/09/2020 11:30 29.2 35 757.0 600 0.0 1.1 4.1 176
16/09/2020 11:40 29.8 32 764.2 600 0.0 1.4 5.2 213
16/09/2020 11:50 30.1 29 768.7 600 0.0 1.5 5.5 165
16/09/2020 12:00 30.5 29 765.7 600 0.0 1.0 3.6 158
16/09/2020 12:10 30.0 31 769.1 600 0.0 1.8 6.4 264
16/09/2020 12:20 30.6 29 768.0 600 0.0 1.3 4.6 109
16/09/2020 12:30 30.8 28 768.7 600 0.0 2.0 7.3 168
16/09/2020 12:40 30.5 26 762.2 600 0.0 1.5 5.4 217
16/09/2020 12:50 31.0 27 564.6 424 0.0 1.8 6.6 160
16/09/2020 13:00 31.1 26 742.1 600 0.0 1.9 6.8 108
16/09/2020 13:10 31.4 24 732.5 600 0.0 1.1 3.9 148
16/09/2020 13:20 31.6 25 713.0 600 0.0 2.4 8.7 210
16/09/2020 13:30 31.1 25 631.2 540 0.0 2.6 9.2 242
16/09/2020 13:40 31.1 25 618.9 586 0.0 2.0 7.1 255
16/09/2020 13:50 31.4 25 654.9 600 0.0 1.6 5.8 191
16/09/2020 14:00 31.5 25 635.0 600 0.0 2.1 7.6 124
16/09/2020 14:10 31.4 24 641.2 600 0.0 1.4 5.2 49
16/09/2020 14:20 31.9 23 608.1 600 0.0 2.1 7.6 156
16/09/2020 14:30 31.9 23 590.3 600 0.0 2.0 7.1 161
16/09/2020 14:40 31.8 22 575.2 600 0.0 0.8 2.7 147
16/09/2020 14:50 32.2 22 534.3 600 0.0 1.1 4.0 176
16/09/2020 15:00 32.0 23 515.5 600 0.0 3.0 10.8 240
16/09/2020 15:10 31.8 23 506.4 600 0.0 3.0 10.7 237
16/09/2020 15:20 31.5 22 478.2 600 0.0 1.9 6.9 225
16/09/2020 15:30 31.5 22 309.3 424 0.0 1.6 5.6 335
16/09/2020 15:40 31.3 23 188.8 172 0.0 2.4 8.5 253
16/09/2020 15:50 31.3 27 400.6 600 0.0 2.1 7.6 315
16/09/2020 16:00 30.5 34 270.7 306 0.0 2.9 10.4 356
16/09/2020 16:10 29.7 36 164.1 0 0.0 3.0 10.9 23
16/09/2020 16:20 29.4 37 154.7 4 0.0 3.5 12.6 22
16/09/2020 16:30 29.2 37 192.2 600 0.0 3.3 12.0 16
16/09/2020 16:40 29.3 37 193.4 600 0.0 2.9 10.6 6
16/09/2020 16:50 29.1 37 176.7 600 0.0 2.8 10.0 20
16/09/2020 17:00 29.0 37 171.3 600 0.0 3.1 11.2 6
16/09/2020 17:10 28.8 38 140.6 600 0.0 3.7 13.3 6
16/09/2020 17:20 28.5 38 93.8 454 0.0 3.3 12.0 15
16/09/2020 17:30 28.2 39 71.2 406 0.0 2.9 10.4 8
16/09/2020 17:40 28.0 40 36.7 0 0.0 2.6 9.2 12
16/09/2020 17:50 27.7 40 23.9 0 0.0 3.2 11.3 11
16/09/2020 18:00 27.5 41 6.7 0 0.0 3.5 12.7 11
16/09/2020 18:10 27.2 42 0.0 0 0.0 3.7 13.1 4
16/09/2020 18:20 26.9 43 0.0 0 0.0 3.5 12.7 0
16/09/2020 18:30 26.7 43 0.0 0 0.0 3.9 13.9 0
16/09/2020 18:40 26.5 44 0.0 0 0.0 3.9 14.0 1
16/09/2020 18:50 26.3 44 0.0 0 0.0 3.1 11.3 352
16/09/2020 19:00 26.0 45 0.0 0 0.0 3.9 13.9 348
16/09/2020 19:10 25.9 45 0.0 0 0.0 4.1 14.6 349
16/09/2020 19:20 25.8 45 0.0 0 0.0 4.0 14.5 348
16/09/2020 19:30 25.7 45 0.0 0 0.0 3.8 13.6 351
16/09/2020 19:40 25.5 45 0.0 0 0.0 1.9 6.8 29
16/09/2020 19:50 25.2 46 0.0 0 0.0 0.8 3.0 278
16/09/2020 20:00 25.0 46 0.0 0 0.0 1.7 6.2 334
16/09/2020 20:10 24.8 47 0.0 0 0.0 2.2 7.8 356
16/09/2020 20:20 24.7 47 0.0 0 0.0 1.2 4.4 318
16/09/2020 20:30 24.6 47 0.0 0 0.0 1.6 5.7 2
16/09/2020 20:40 24.2 47 0.0 0 0.0 2.4 8.8 358
16/09/2020 20:50 23.7 49 0.0 0 0.0 2.3 8.1 355
16/09/2020 21:00 23.2 50 0.0 0 0.0 2.2 8.0 1
16/09/2020 21:10 23.3 50 0.0 0 0.0 1.3 4.6 37
16/09/2020 21:20 22.9 50 0.0 0 0.0 2.3 8.2 27
16/09/2020 21:30 23.3 49 0.0 0 0.0 2.4 8.8 18
16/09/2020 21:40 23.1 51 0.0 0 0.0 2.8 10.0 15
16/09/2020 21:50 23.1 51 0.0 0 0.0 3.3 12.0 9
16/09/2020 22:00 23.0 51 0.0 0 0.0 2.4 8.8 11
16/09/2020 22:10 22.4 53 0.0 0 0.0 2.6 9.2 27
16/09/2020 22:20 22.5 53 0.0 0 0.0 2.3 8.3 34
16/09/2020 22:30 22.5 52 0.0 0 0.0 2.1 7.5 29
16/09/2020 22:40 22.3 54 0.0 0 0.0 1.8 6.6 41
16/09/2020 22:50 22.1 54 0.0 0 0.0 1.1 3.9 332
16/09/2020 23:00 21.8 55 0.0 0 0.0 1.2 4.3 355
16/09/2020 23:10 21.7 56 0.0 0 0.0 2.7 9.6 24
16/09/2020 23:20 21.8 55 0.0 0 0.0 3.1 11.1 12
16/09/2020 23:30 21.5 57 0.0 0 0.0 2.3 8.1 24
16/09/2020 23:40 21.0 58 0.0 0 0.0 0.3 1.2 290
16/09/2020 23:50 20.8 59 0.0 0 0.0 1.2 4.2 51
Anterior Página 1 de 1 Siguiente

NOTA: Tipo de datos según el color:
   - Valores diarios o 10 minutos correctos
   - Valores diarios calculados a partir de un número de datos 10 minutos menor que 144 y mayor que 120, o de un número de datos semihorarios menor que 48 y mayor que 40 (caso de las estaciones de INTIA y del Ministerio)
   - Valores diez minutos estimados


Contacto        Enlaces        Aviso legal